Accueil
METAR-TAF:

METAR-TAF

Aéroports :

Aéroport de Jersey

Jersey,

latitude: 49-13N, longitude: 002-12W, altitude: 84 m

Observation

Le bulletin a été fait il y a 41 minutes, à 01:20 UTC
Vent 14 kt de ouest/nord-ouest
Température 10°C
Humidité 76%
Pression 1027 hPa
Visibilité 10 km ou plus

METAR: EGJJ 100120Z AUTO 30014KT 9999 FEW024/// SCT028/// BKN033/// 10/06 Q1027 REDZ

Heure: 02:01 (02:01 UTC)

Prévision

Le bulletin a été fait il y a 3 heures et 7 minutes, à 22:54 UTC
Prévision valable du 10 à 00 UTC au 10 à 09 UTC
Vent 15 kt de nord-ouest
Visibilité 10 km ou plus
Quelques nuages à une hauteur de 1500 ft
Nuages épars à une hauteur de 2000 ft

TAF: EGJJ 092254Z 1000/1009 31015KT 9999 FEW015 SCT020

Observations et prévisions météorologiques de plus de 4000 aéroports (messages METAR et TAF).

Les stations disponibles sont représentées par des disques jaunes et rouges sur la carte.

Passer la souris dessus pour voir le nom de la station.

Cliquer dessus pour voir les observations et prévisions météorologiques.

Pour changer de carte: cliquez sur les boutons verts avec une croix noire pour zoomer, sur le bouton vert avec un tiret pour effectuer un zoom arrière, ou sur les flèches vertes pour les cartes adjacentes.


METAR-TAF: